Aérodrome :
LOGIN :

S'inscrire | Disclaimer

   EN    FR    IT 

 










Légende :    VFR   VFR Marginal   IFR   IFR Intensif   IFR Très Intensif
Visi : 
Plafond : 
>= 8 km
>= 3000ft
5 à 8 km
1000 à 3000 ft
1500m à 5 km
500 à 1000 ft
800 à 1500m
200 à 500 ft
< 800m
< 200 ft
Symboles :   Orages  Brouillard  Fortes neiges  Fortes précipitations  Vent > 20 kt
SIGMETs :   Divers  Orages  Givrage  Turbulence  Onde Orograph.  Cendres Volcan.






- Altitude de l'aérodrome : 112 ft
- Code IATA : KIR


EIKY - Kerry Farranfore

DERNIER METAR :
  • 241800Z 28007KT 240V320 9999 FEW031 SCT039 07/02 Q1009

METARs EXPIRÉS :
  • 241730Z 28008KT 250V320 9999 SCT026 07/03 Q1009
  • 241700Z 29010KT 250V330 9999 SCT030 07/03 Q1009
  • 241600Z 28008G18KT 230V320 9999 SCT021 BKN025 08/04 Q1008
  • 241530Z 29012G24KT 240V330 9999 SCT026 08/04 Q1008

TAF TAF EIKY
Valide du 24 à 18h jusqu'au 25 à 03h UTC


241700Z 2418/2503 28012KT 9999 SCT015 BKN030
TEMPO 2418/2421 29015G27KT -SHRA FEW018CB



MET'MAP, la Météo Aéronautique d'un coup d'oeil ! - Copyright ORBIFLY Décembre 2007 - Disclaimer

ORBIFLY MET'MAP TEAM :

Programmation & Développement : Alexandra Zaïnal
Sur une idée originale de : Baudouin d'Aumeries
Assistance à la programmation : Marc-Olivier Méhu
Soutien technique & logistique : Manuel Goepfert

Contact : metmap@orbifly.com




SOURCES & CREDITS :

   NOAA